createdAt,value
2023-05-14T00:00:54.158Z,9.42
2023-05-14T00:01:54.139Z,9.34
2023-05-14T00:02:54.175Z,9.40
2023-05-14T00:03:54.293Z,9.34
2023-05-14T00:04:54.114Z,9.40
2023-05-14T00:05:54.101Z,9.46
2023-05-14T00:06:54.079Z,9.46
2023-05-14T00:07:54.066Z,9.53
2023-05-14T00:08:54.058Z,9.46
2023-05-14T00:09:54.060Z,9.49
2023-05-14T00:10:54.062Z,9.61
2023-05-14T00:11:54.030Z,9.50
2023-05-14T00:12:54.023Z,9.50
2023-05-14T00:13:54.014Z,9.52
2023-05-14T00:14:54.021Z,9.57
2023-05-14T00:15:54.030Z,9.49
2023-05-14T00:16:53.984Z,9.50
2023-05-14T00:17:54.010Z,9.56
2023-05-14T00:18:54.026Z,9.50
2023-05-14T00:19:53.956Z,9.50
2023-05-14T00:20:53.932Z,9.45
2023-05-14T00:21:53.919Z,9.15
2023-05-14T00:22:53.918Z,9.05
2023-05-14T00:23:53.902Z,8.90
2023-05-14T00:24:53.902Z,8.83
2023-05-14T00:25:53.886Z,8.78
2023-05-14T00:26:53.875Z,8.79
2023-05-14T00:27:53.866Z,8.86
2023-05-14T00:28:53.852Z,8.90
2023-05-14T00:29:53.856Z,8.87
2023-05-14T00:30:53.860Z,8.81
2023-05-14T00:31:53.891Z,8.83
2023-05-14T00:32:53.812Z,8.86
2023-05-14T00:33:53.817Z,8.99
2023-05-14T00:34:53.791Z,8.87
2023-05-14T00:35:53.771Z,8.88
2023-05-14T00:36:53.768Z,8.88
2023-05-14T00:37:53.757Z,8.94
2023-05-14T00:38:53.757Z,8.90
2023-05-14T00:39:53.731Z,8.96
2023-05-14T00:40:53.727Z,8.91
2023-05-14T00:41:53.733Z,9.02
2023-05-14T00:42:53.711Z,9.06
2023-05-14T00:43:53.698Z,9.10
2023-05-14T00:44:53.682Z,9.05
2023-05-14T00:45:53.697Z,9.12
2023-05-14T00:46:53.696Z,9.06
2023-05-14T00:47:53.730Z,9.10
2023-05-14T00:48:53.658Z,9.10
2023-05-14T00:49:53.639Z,9.10
2023-05-14T00:50:53.619Z,9.13
2023-05-14T00:51:53.598Z,9.12
2023-05-14T00:52:53.610Z,9.02
2023-05-14T00:53:53.574Z,9.05
2023-05-14T00:54:53.568Z,9.01
2023-05-14T00:55:53.562Z,8.91
2023-05-14T00:56:53.545Z,8.97
2023-05-14T00:57:53.553Z,8.99
2023-05-14T00:58:53.524Z,8.93
2023-05-14T00:59:53.615Z,8.97
2023-05-14T01:00:53.541Z,8.84
2023-05-14T01:01:53.500Z,8.84
2023-05-14T01:02:53.594Z,8.83
2023-05-14T01:03:53.626Z,8.83
2023-05-14T01:04:53.460Z,8.86
2023-05-14T01:05:53.447Z,8.84
2023-05-14T01:06:53.449Z,8.84
2023-05-14T01:07:53.435Z,8.84
2023-05-14T01:08:53.429Z,8.86
2023-05-14T01:09:53.405Z,8.83
2023-05-14T01:10:53.392Z,8.79
2023-05-14T01:11:53.393Z,8.76
2023-05-14T01:12:53.375Z,8.81
2023-05-14T01:13:53.359Z,8.73
2023-05-14T01:14:53.345Z,8.62
2023-05-14T01:15:53.332Z,8.54
2023-05-14T01:16:53.364Z,8.50
2023-05-14T01:17:53.351Z,8.54
2023-05-14T01:18:53.345Z,8.57
2023-05-14T01:19:53.300Z,8.55
2023-05-14T01:20:53.300Z,8.58
2023-05-14T01:21:53.289Z,8.58
2023-05-14T01:22:53.261Z,8.73
2023-05-14T01:23:53.253Z,8.68
2023-05-14T01:24:53.249Z,8.57
2023-05-14T01:25:53.248Z,8.51
2023-05-14T01:26:53.227Z,8.51
2023-05-14T01:27:53.217Z,8.51
2023-05-14T01:28:53.192Z,8.51
2023-05-14T01:29:53.183Z,8.50
2023-05-14T01:30:53.196Z,8.55
2023-05-14T01:31:53.166Z,8.47
2023-05-14T01:32:53.190Z,8.37
2023-05-14T01:33:53.138Z,8.35
2023-05-14T01:34:53.144Z,8.32
2023-05-14T01:35:53.118Z,8.36
2023-05-14T01:36:53.108Z,8.37
2023-05-14T01:37:53.090Z,8.37
2023-05-14T01:38:53.106Z,8.50
2023-05-14T01:39:53.089Z,8.54
2023-05-14T01:40:53.093Z,8.60
2023-05-14T01:41:53.044Z,8.63
2023-05-14T01:42:53.101Z,8.75
2023-05-14T01:43:53.020Z,8.72
2023-05-14T01:44:53.022Z,8.60
2023-05-14T01:45:53.038Z,8.66
2023-05-14T01:46:52.999Z,8.68
2023-05-14T01:47:53.015Z,8.66
2023-05-14T01:48:52.981Z,8.69
2023-05-14T01:49:52.980Z,8.75
2023-05-14T01:50:52.948Z,8.90
2023-05-14T01:51:52.940Z,8.96
2023-05-14T01:52:52.927Z,8.79
2023-05-14T01:53:52.937Z,8.99
2023-05-14T01:54:52.915Z,8.99
2023-05-14T01:55:52.900Z,8.97
2023-05-14T01:56:52.882Z,9.10
2023-05-14T01:57:52.875Z,9.20
2023-05-14T01:58:52.878Z,9.15
2023-05-14T01:59:52.848Z,9.18
2023-05-14T02:00:52.834Z,9.15
2023-05-14T02:01:52.909Z,9.18
2023-05-14T02:02:52.829Z,9.09
2023-05-14T02:03:52.870Z,9.15
2023-05-14T02:04:52.789Z,9.18
2023-05-14T02:05:52.799Z,9.18
2023-05-14T02:06:52.773Z,9.24
2023-05-14T02:07:52.794Z,9.05
2023-05-14T02:08:52.761Z,9.15
2023-05-14T02:09:52.740Z,9.20
2023-05-14T02:10:52.734Z,9.10
2023-05-14T02:11:52.725Z,9.18
2023-05-14T02:12:52.716Z,9.16
2023-05-14T02:13:52.703Z,9.12
2023-05-14T02:14:52.694Z,9.15
2023-05-14T02:15:52.715Z,9.27
2023-05-14T02:16:52.667Z,9.23
2023-05-14T02:17:52.718Z,9.20
2023-05-14T02:18:52.685Z,9.25
2023-05-14T02:19:52.636Z,9.13
2023-05-14T02:20:52.641Z,9.13
2023-05-14T02:21:52.630Z,9.10
2023-05-14T02:22:52.621Z,9.04
2023-05-14T02:23:52.591Z,9.02
2023-05-14T02:24:52.595Z,8.97
2023-05-14T02:25:52.564Z,8.97
2023-05-14T02:26:52.568Z,8.90
2023-05-14T02:27:52.547Z,8.88
2023-05-14T02:28:52.542Z,8.86
2023-05-14T02:29:52.524Z,8.78
2023-05-14T02:30:52.513Z,8.78
2023-05-14T02:31:52.552Z,8.88
2023-05-14T02:32:52.571Z,8.84
2023-05-14T02:33:52.486Z,8.72
2023-05-14T02:34:52.479Z,8.86
2023-05-14T02:35:52.468Z,8.84
2023-05-14T02:36:52.470Z,8.78
2023-05-14T02:37:52.443Z,8.81
2023-05-14T02:38:52.420Z,8.78
2023-05-14T02:39:52.424Z,8.79
2023-05-14T02:40:52.448Z,8.68
2023-05-14T02:41:52.407Z,8.65
2023-05-14T02:42:52.382Z,8.54
2023-05-14T02:43:52.370Z,8.54
2023-05-14T02:44:52.381Z,8.44
2023-05-14T02:45:52.371Z,8.47
2023-05-14T02:46:52.378Z,8.53
2023-05-14T02:47:52.387Z,8.51
2023-05-14T02:48:52.320Z,8.51
2023-05-14T02:49:52.317Z,8.45
2023-05-14T02:50:52.310Z,8.51
2023-05-14T02:51:52.284Z,8.44
2023-05-14T02:52:52.310Z,8.40
2023-05-14T02:53:52.274Z,8.37
2023-05-14T02:54:52.257Z,8.37
2023-05-14T02:55:52.258Z,8.44
2023-05-14T02:56:52.230Z,8.44
2023-05-14T02:57:52.222Z,8.47
2023-05-14T02:58:52.215Z,8.45
2023-05-14T02:59:52.195Z,8.45
2023-05-14T03:00:52.211Z,8.44
2023-05-14T03:01:52.208Z,8.47
2023-05-14T03:02:52.218Z,8.37
2023-05-14T03:03:52.153Z,8.42
2023-05-14T03:04:52.168Z,8.36
2023-05-14T03:05:52.176Z,8.39
2023-05-14T03:06:52.128Z,8.32
2023-05-14T03:07:52.114Z,8.33
2023-05-14T03:08:52.100Z,8.28
2023-05-14T03:09:52.122Z,8.33
2023-05-14T03:10:52.091Z,8.32
2023-05-14T03:11:52.070Z,8.32
2023-05-14T03:12:52.083Z,8.36
2023-05-14T03:13:52.052Z,8.36
2023-05-14T03:14:52.052Z,8.33
2023-05-14T03:15:52.039Z,8.33
2023-05-14T03:16:52.034Z,8.44
2023-05-14T03:17:52.057Z,8.28
2023-05-14T03:18:52.063Z,8.30
2023-05-14T03:19:51.997Z,8.35
2023-05-14T03:20:51.965Z,8.33
2023-05-14T03:21:51.964Z,8.32
2023-05-14T03:22:51.945Z,8.33
2023-05-14T03:23:51.945Z,8.36
2023-05-14T03:24:51.918Z,8.40
2023-05-14T03:25:51.917Z,8.26
2023-05-14T03:26:51.915Z,8.30
2023-05-14T03:27:51.892Z,8.35
2023-05-14T03:28:51.905Z,8.30
2023-05-14T03:29:51.873Z,8.35
2023-05-14T03:30:51.934Z,8.35
2023-05-14T03:31:51.850Z,8.30
2023-05-14T03:32:51.938Z,8.32
2023-05-14T03:33:51.846Z,8.33
2023-05-14T03:34:51.823Z,8.28
2023-05-14T03:35:51.850Z,8.35
2023-05-14T03:36:51.804Z,8.37
2023-05-14T03:37:51.824Z,8.36
2023-05-14T03:38:51.788Z,8.50
2023-05-14T03:39:51.766Z,8.39
2023-05-14T03:40:51.791Z,8.39
2023-05-14T03:41:51.746Z,8.47
2023-05-14T03:42:51.734Z,8.53
2023-05-14T03:43:51.716Z,8.57
2023-05-14T03:44:51.714Z,8.63
2023-05-14T03:45:51.703Z,8.65
2023-05-14T03:46:51.684Z,8.57
2023-05-14T03:47:51.782Z,8.62
2023-05-14T03:48:51.742Z,8.68
2023-05-14T03:49:51.672Z,8.69
2023-05-14T03:50:51.642Z,8.72
2023-05-14T03:51:51.669Z,8.78
2023-05-14T03:52:51.635Z,8.78
2023-05-14T03:53:51.644Z,8.73
2023-05-14T03:54:51.604Z,8.86
2023-05-14T03:55:51.585Z,8.84
2023-05-14T03:56:51.591Z,8.78
2023-05-14T03:57:51.577Z,8.66
2023-05-14T03:58:51.555Z,8.71
2023-05-14T03:59:51.543Z,8.83
2023-05-14T04:00:51.536Z,8.81
2023-05-14T04:01:51.538Z,8.81
2023-05-14T04:02:51.691Z,8.84
2023-05-14T04:03:51.648Z,9.04
2023-05-14T04:04:51.616Z,9.01
2023-05-14T04:05:51.480Z,8.99
2023-05-14T04:06:51.492Z,9.09
2023-05-14T04:07:51.458Z,9.05
2023-05-14T04:08:51.472Z,9.04
2023-05-14T04:09:51.441Z,9.13
2023-05-14T04:10:51.444Z,9.23
2023-05-14T04:11:51.434Z,9.20
2023-05-14T04:12:51.403Z,9.24
2023-05-14T04:13:51.394Z,9.15
2023-05-14T04:14:51.387Z,9.05
2023-05-14T04:15:51.500Z,9.21
2023-05-14T04:16:51.421Z,9.27
2023-05-14T04:17:51.387Z,9.24
2023-05-14T04:18:51.402Z,9.32
2023-05-14T04:19:51.400Z,9.32
2023-05-14T04:20:51.367Z,9.42
2023-05-14T04:21:51.299Z,9.38
2023-05-14T04:22:51.301Z,9.53
2023-05-14T04:23:51.282Z,9.58
2023-05-14T04:24:51.269Z,9.58
2023-05-14T04:25:51.374Z,9.58
2023-05-14T04:26:51.266Z,9.52
2023-05-14T04:27:51.251Z,9.56
2023-05-14T04:28:51.231Z,9.61
2023-05-14T04:29:51.230Z,9.56
2023-05-14T04:30:51.225Z,9.46
2023-05-14T04:31:51.259Z,9.56
2023-05-14T04:32:51.213Z,9.56
2023-05-14T04:33:51.176Z,9.60
2023-05-14T04:34:51.169Z,9.46
2023-05-14T04:35:51.141Z,9.56
2023-05-14T04:36:51.138Z,9.60
2023-05-14T04:37:51.132Z,9.71
2023-05-14T04:38:51.115Z,9.76
2023-05-14T04:39:51.116Z,9.83
2023-05-14T04:40:51.096Z,9.86
2023-05-14T04:41:51.084Z,9.91
2023-05-14T04:42:51.084Z,9.94
2023-05-14T04:43:51.063Z,9.88
2023-05-14T04:44:51.057Z,10.04
2023-05-14T04:45:51.085Z,10.03
2023-05-14T04:46:51.046Z,10.06
2023-05-14T04:47:51.083Z,10.14
2023-05-14T04:48:51.019Z,10.14
2023-05-14T04:49:51.001Z,10.18
2023-05-14T04:50:50.998Z,10.14
2023-05-14T04:51:50.976Z,10.19
2023-05-14T04:52:50.966Z,10.25
2023-05-14T04:53:50.970Z,10.32
2023-05-14T04:54:50.967Z,10.26
2023-05-14T04:55:50.940Z,10.33
2023-05-14T04:56:50.926Z,10.32
2023-05-14T04:57:50.901Z,10.37
2023-05-14T04:58:50.906Z,10.28
2023-05-14T04:59:50.885Z,10.28
2023-05-14T05:00:50.894Z,10.22
2023-05-14T05:01:50.866Z,10.36
2023-05-14T05:02:50.922Z,10.43
2023-05-14T05:03:50.899Z,10.46
2023-05-14T05:04:50.839Z,10.53
2023-05-14T05:05:50.820Z,10.55
2023-05-14T05:06:50.816Z,10.60
2023-05-14T05:07:50.822Z,10.47
2023-05-14T05:08:50.804Z,10.66
2023-05-14T05:09:50.783Z,10.56
2023-05-14T05:10:50.786Z,10.60
2023-05-14T05:11:50.760Z,10.66
2023-05-14T05:12:50.771Z,10.59
2023-05-14T05:13:50.753Z,10.65
2023-05-14T05:14:50.728Z,10.59
2023-05-14T05:15:50.737Z,10.58
2023-05-14T05:16:50.710Z,10.51
2023-05-14T05:17:50.741Z,10.56
2023-05-14T05:18:50.766Z,10.44
2023-05-14T05:19:50.673Z,10.60
2023-05-14T05:20:50.672Z,10.70
2023-05-14T05:21:50.671Z,10.73
2023-05-14T05:22:50.668Z,10.81
2023-05-14T05:23:50.637Z,10.80
2023-05-14T05:24:50.632Z,10.88
2023-05-14T05:25:50.620Z,10.99
2023-05-14T05:26:50.605Z,11.03
2023-05-14T05:27:50.603Z,11.13
2023-05-14T05:28:50.587Z,11.07
2023-05-14T05:29:50.583Z,11.19
2023-05-14T05:30:50.574Z,11.24
2023-05-14T05:31:50.615Z,11.21
2023-05-14T05:32:50.583Z,11.36
2023-05-14T05:33:50.531Z,11.25
2023-05-14T05:34:50.540Z,11.19
2023-05-14T05:35:50.515Z,11.25
2023-05-14T05:36:50.516Z,11.41
2023-05-14T05:37:50.507Z,11.53
2023-05-14T05:38:50.477Z,11.46
2023-05-14T05:39:50.471Z,11.43
2023-05-14T05:40:50.455Z,11.38
2023-05-14T05:41:50.454Z,11.43
2023-05-14T05:42:50.435Z,11.53
2023-05-14T05:43:50.415Z,11.65
2023-05-14T05:44:50.420Z,11.75
2023-05-14T05:45:50.398Z,11.74
2023-05-14T05:46:50.550Z,11.72
2023-05-14T05:47:50.424Z,11.74
2023-05-14T05:48:50.384Z,11.82
2023-05-14T05:49:50.352Z,11.93
2023-05-14T05:50:50.534Z,11.86
2023-05-14T05:51:50.344Z,11.70
2023-05-14T05:52:50.319Z,11.74
2023-05-14T05:54:44.311Z,11.70
2023-05-14T05:54:51.319Z,11.86
2023-05-14T05:55:50.305Z,12.05
2023-05-14T05:56:50.280Z,12.12
2023-05-14T05:57:50.271Z,12.29
2023-05-14T05:58:50.268Z,12.39
2023-05-14T05:59:50.248Z,12.42
2023-05-14T06:00:50.257Z,12.51
2023-05-14T06:01:50.260Z,12.66
2023-05-14T06:02:50.253Z,12.64
2023-05-14T06:03:50.215Z,12.67
2023-05-14T06:04:50.216Z,12.71
2023-05-14T06:05:50.222Z,12.82
2023-05-14T06:06:50.182Z,12.79
2023-05-14T06:07:50.167Z,12.59
2023-05-14T06:08:50.161Z,12.44
2023-05-14T06:09:50.153Z,12.51
2023-05-14T06:10:50.165Z,12.57
2023-05-14T06:11:50.129Z,12.57
2023-05-14T06:12:50.128Z,12.60
2023-05-14T06:13:50.103Z,12.52
2023-05-14T06:14:50.089Z,12.69
2023-05-14T06:15:50.087Z,12.56
2023-05-14T06:16:50.124Z,12.66
2023-05-14T06:17:50.094Z,12.70
2023-05-14T06:18:50.103Z,12.70
2023-05-14T06:19:50.056Z,12.84
2023-05-14T06:20:50.044Z,13.07
2023-05-14T06:21:50.038Z,13.24
2023-05-14T06:22:50.011Z,13.25
2023-05-14T06:23:50.005Z,13.49
2023-05-14T06:24:50.008Z,13.47
2023-05-14T06:25:50.770Z,13.59
2023-05-14T06:26:49.972Z,13.80
2023-05-14T06:27:49.974Z,13.95
2023-05-14T06:28:49.949Z,13.98
2023-05-14T06:29:49.946Z,14.28
2023-05-14T06:30:49.932Z,14.37
2023-05-14T06:31:49.959Z,14.60
2023-05-14T06:32:49.949Z,14.80
2023-05-14T06:33:49.909Z,15.19
2023-05-14T06:34:49.925Z,15.39
2023-05-14T06:35:49.878Z,15.43
2023-05-14T06:36:49.875Z,15.56
2023-05-14T06:37:49.847Z,15.75
2023-05-14T06:38:49.852Z,15.84
2023-05-14T06:39:49.870Z,15.89
2023-05-14T06:40:49.824Z,15.57
2023-05-14T06:41:49.809Z,15.33
2023-05-14T06:42:49.803Z,15.15
2023-05-14T06:43:49.806Z,15.27
2023-05-14T06:44:49.780Z,15.54
2023-05-14T06:45:49.773Z,15.49
2023-05-14T06:46:49.767Z,15.57
2023-05-14T06:47:49.902Z,15.52
2023-05-14T06:48:49.782Z,15.49
2023-05-14T06:49:49.729Z,15.49
2023-05-14T06:50:49.735Z,15.61
2023-05-14T06:51:49.711Z,15.74
2023-05-14T06:52:49.719Z,15.84
2023-05-14T06:53:49.694Z,15.99
2023-05-14T06:54:49.683Z,16.04
2023-05-14T06:55:49.668Z,16.16
2023-05-14T06:56:49.662Z,16.16
2023-05-14T06:57:49.654Z,16.52
2023-05-14T06:58:49.640Z,16.48
2023-05-14T06:59:49.630Z,16.86
2023-05-14T07:00:49.614Z,16.89
2023-05-14T07:01:49.677Z,17.10
2023-05-14T07:02:49.667Z,17.41
2023-05-14T07:03:49.638Z,17.63
2023-05-14T07:04:49.671Z,17.48
2023-05-14T07:05:49.565Z,17.40
2023-05-14T07:06:49.569Z,17.43
2023-05-14T07:07:49.554Z,17.46
2023-05-14T07:08:50.389Z,17.67
2023-05-14T07:09:49.529Z,17.95
2023-05-14T07:10:49.519Z,18.10
2023-05-14T07:11:49.512Z,18.18
2023-05-14T07:12:49.500Z,18.19
2023-05-14T07:13:49.488Z,18.34
2023-05-14T07:14:49.473Z,18.59
2023-05-14T07:15:49.462Z,18.47
2023-05-14T07:16:49.489Z,18.65
2023-05-14T07:17:49.545Z,18.74
2023-05-14T07:18:49.476Z,18.86
2023-05-14T07:19:49.420Z,18.98
2023-05-14T07:20:49.410Z,19.15
2023-05-14T07:21:49.410Z,19.08
2023-05-14T07:22:49.392Z,18.91
2023-05-14T07:23:49.385Z,18.97
2023-05-14T07:24:49.392Z,18.91
2023-05-14T07:25:49.368Z,18.91
2023-05-14T07:26:49.376Z,18.82
2023-05-14T07:27:49.345Z,18.80
2023-05-14T07:28:49.337Z,18.70
2023-05-14T07:29:49.316Z,18.73
2023-05-14T07:30:49.322Z,18.70
2023-05-14T07:31:49.328Z,18.65
2023-05-14T07:32:49.349Z,18.61
2023-05-14T07:33:49.276Z,18.58
2023-05-14T07:34:49.272Z,18.58
2023-05-14T07:35:49.274Z,18.64
2023-05-14T07:36:49.246Z,18.62
2023-05-14T07:37:49.234Z,18.55
2023-05-14T07:38:49.233Z,18.42
2023-05-14T07:39:49.232Z,18.44
2023-05-14T07:40:49.245Z,18.54
2023-05-14T07:41:49.195Z,18.77
2023-05-14T07:42:49.210Z,18.55
2023-05-14T07:43:49.175Z,18.50
2023-05-14T07:44:49.182Z,18.47
2023-05-14T07:45:49.157Z,18.37
2023-05-14T07:46:49.158Z,18.37
2023-05-14T07:47:49.200Z,18.50
2023-05-14T07:48:49.125Z,18.73
2023-05-14T07:49:49.129Z,18.86
2023-05-14T07:50:49.111Z,19.01
2023-05-14T07:51:49.085Z,19.13
2023-05-14T07:52:49.093Z,19.08
2023-05-14T07:53:49.085Z,19.13
2023-05-14T07:54:50.574Z,19.23
2023-05-14T07:55:49.067Z,19.42
2023-05-14T07:56:49.043Z,19.61
2023-05-14T07:57:49.038Z,19.75
2023-05-14T07:58:49.046Z,19.79
2023-05-14T07:59:49.025Z,19.91
2023-05-14T08:00:49.008Z,20.08
2023-05-14T08:01:49.022Z,20.21
2023-05-14T08:02:49.257Z,20.16
2023-05-14T08:03:49.128Z,20.16
2023-05-14T08:04:48.964Z,20.12
2023-05-14T08:05:48.964Z,20.03
2023-05-14T08:06:48.951Z,19.79
2023-05-14T08:07:48.942Z,19.93
2023-05-14T08:08:48.962Z,20.02
2023-05-14T08:09:48.921Z,20.06
2023-05-14T08:10:48.928Z,20.10
2023-05-14T08:11:48.897Z,19.90
2023-05-14T08:12:48.906Z,19.79
2023-05-14T08:13:48.892Z,19.63
2023-05-14T08:14:48.882Z,19.35
2023-05-14T08:15:48.866Z,19.42
2023-05-14T08:16:48.942Z,19.21
2023-05-14T08:17:48.901Z,19.11
2023-05-14T08:18:48.871Z,19.14
2023-05-14T08:19:48.830Z,19.15
2023-05-14T08:20:48.811Z,19.29
2023-05-14T08:21:48.808Z,19.38
2023-05-14T08:22:48.804Z,19.75
2023-05-14T08:23:48.787Z,19.95
2023-05-14T08:24:48.856Z,20.12
2023-05-14T08:25:48.785Z,20.31
2023-05-14T08:26:48.756Z,20.49
2023-05-14T08:27:48.757Z,20.39
2023-05-14T08:28:48.731Z,20.59
2023-05-14T08:29:48.723Z,20.65
2023-05-14T08:30:48.750Z,20.72
2023-05-14T08:31:48.718Z,20.90
2023-05-14T08:32:48.709Z,20.83
2023-05-14T08:33:48.684Z,20.69
2023-05-14T08:34:48.668Z,20.95
2023-05-14T08:35:48.664Z,20.99
2023-05-14T08:36:48.658Z,21.08
2023-05-14T08:37:48.649Z,21.11
2023-05-14T08:38:48.630Z,21.35
2023-05-14T08:39:48.657Z,21.59
2023-05-14T08:40:48.609Z,21.50
2023-05-14T08:41:48.756Z,21.17
2023-05-14T08:42:48.597Z,21.27
2023-05-14T08:43:48.580Z,21.19
2023-05-14T08:44:48.575Z,21.04
2023-05-14T08:45:48.570Z,21.19
2023-05-14T08:46:48.556Z,21.04
2023-05-14T08:47:48.629Z,20.90
2023-05-14T08:48:48.588Z,20.81
2023-05-14T08:49:48.522Z,20.83
2023-05-14T08:50:48.514Z,20.76
2023-05-14T08:51:48.567Z,20.81
2023-05-14T08:52:48.490Z,20.77
2023-05-14T08:53:48.483Z,20.91
2023-05-14T08:54:48.463Z,20.62
2023-05-14T08:55:48.472Z,20.83
2023-05-14T08:56:50.496Z,21.13
2023-05-14T08:57:48.449Z,21.34
2023-05-14T08:58:48.429Z,21.44
2023-05-14T08:59:48.449Z,21.30
2023-05-14T09:00:48.429Z,21.35
2023-05-14T09:01:48.462Z,21.29
2023-05-14T09:02:48.407Z,21.19
2023-05-14T09:03:48.440Z,21.21
2023-05-14T09:04:48.378Z,21.17
2023-05-14T09:05:48.365Z,21.24
2023-05-14T09:06:48.347Z,21.39
2023-05-14T09:07:48.346Z,21.57
2023-05-14T09:08:48.332Z,21.60
2023-05-14T09:09:48.334Z,21.76
2023-05-14T09:10:48.314Z,22.04
2023-05-14T09:11:48.306Z,22.32
2023-05-14T09:12:48.293Z,22.62
2023-05-14T09:13:48.283Z,22.53
2023-05-14T09:14:48.282Z,22.75
2023-05-14T09:15:48.266Z,22.60
2023-05-14T09:16:48.326Z,22.53
2023-05-14T09:17:48.290Z,22.50
2023-05-14T09:18:48.477Z,22.22
2023-05-14T09:19:48.237Z,21.78
2023-05-14T09:20:48.210Z,21.53
2023-05-14T09:21:48.206Z,21.48
2023-05-14T09:22:48.188Z,21.35
2023-05-14T09:23:48.191Z,21.59
2023-05-14T09:24:48.164Z,22.02
2023-05-14T09:25:48.153Z,22.47
2023-05-14T09:26:48.144Z,22.60
2023-05-14T09:27:48.136Z,22.68
2023-05-14T09:28:48.137Z,22.65
2023-05-14T09:29:48.123Z,22.39
2023-05-14T09:30:48.101Z,22.35
2023-05-14T09:31:48.213Z,22.37
2023-05-14T09:32:48.103Z,22.41
2023-05-14T09:33:48.085Z,22.07
2023-05-14T09:34:48.065Z,21.69
2023-05-14T09:35:48.057Z,21.56
2023-05-14T09:36:48.041Z,21.74
2023-05-14T09:37:48.037Z,21.67
2023-05-14T09:38:48.033Z,21.67
2023-05-14T09:39:48.019Z,21.95
2023-05-14T09:40:48.005Z,22.27
2023-05-14T09:41:47.997Z,22.31
2023-05-14T09:42:47.984Z,22.14
2023-05-14T09:43:47.985Z,22.46
2023-05-14T09:44:47.988Z,22.60
2023-05-14T09:45:47.956Z,22.54
2023-05-14T09:46:47.975Z,22.64
2023-05-14T09:47:48.032Z,22.54
2023-05-14T09:48:47.939Z,22.74
2023-05-14T09:49:47.908Z,22.56
2023-05-14T09:50:47.909Z,22.50
2023-05-14T09:51:47.890Z,22.56
2023-05-14T09:52:47.874Z,22.60
2023-05-14T09:53:47.880Z,22.93
2023-05-14T09:54:47.855Z,22.93
2023-05-14T09:55:47.848Z,22.94
2023-05-14T09:56:47.835Z,22.74
2023-05-14T09:57:47.825Z,22.37
2023-05-14T09:58:47.825Z,21.53
2023-05-14T09:59:47.805Z,21.17
2023-05-14T10:00:47.844Z,21.21
2023-05-14T10:01:47.788Z,21.14
2023-05-14T10:02:47.812Z,21.30
2023-05-14T10:03:47.784Z,21.74
2023-05-14T10:04:47.785Z,22.07
2023-05-14T10:05:47.744Z,22.28
2023-05-14T10:06:47.738Z,22.80
2023-05-14T10:07:47.742Z,23.11
2023-05-14T10:08:47.719Z,23.64
2023-05-14T10:09:47.713Z,23.97
2023-05-14T10:10:47.692Z,24.00
2023-05-14T10:11:47.684Z,23.97
2023-05-14T10:12:47.679Z,23.67
2023-05-14T10:13:47.663Z,23.52
2023-05-14T10:14:47.766Z,23.12
2023-05-14T10:15:47.647Z,23.04
2023-05-14T10:16:47.666Z,22.69
2023-05-14T10:17:47.653Z,22.43
2023-05-14T10:18:47.664Z,22.53
2023-05-14T10:19:47.606Z,22.72
2023-05-14T10:20:47.587Z,22.89
2023-05-14T10:21:47.587Z,23.27
2023-05-14T10:22:47.593Z,23.62
2023-05-14T10:23:47.570Z,23.58
2023-05-14T10:24:47.552Z,23.34
2023-05-14T10:25:47.541Z,22.90
2023-05-14T10:26:47.538Z,22.37
2023-05-14T10:27:47.519Z,22.12
2023-05-14T10:28:47.509Z,22.10
2023-05-14T10:29:47.507Z,22.04
2023-05-14T10:30:47.544Z,22.12
2023-05-14T10:31:47.711Z,22.34
2023-05-14T10:32:47.494Z,22.65
2023-05-14T10:33:47.467Z,22.69
2023-05-14T10:34:47.445Z,22.83
2023-05-14T10:35:47.438Z,22.86
2023-05-14T10:36:47.463Z,22.68
2023-05-14T10:37:47.421Z,22.68
2023-05-14T10:38:47.443Z,22.75
2023-05-14T10:39:47.406Z,23.31
2023-05-14T10:40:47.394Z,23.49
2023-05-14T10:41:47.388Z,23.49
2023-05-14T10:42:47.383Z,23.47
2023-05-14T10:43:47.344Z,23.46
2023-05-14T10:44:47.332Z,23.50
2023-05-14T10:45:47.343Z,23.55
2023-05-14T10:46:47.333Z,23.50
2023-05-14T10:47:47.362Z,23.31
2023-05-14T10:48:47.287Z,23.57
2023-05-14T10:49:47.285Z,23.76
2023-05-14T10:50:47.327Z,24.14
2023-05-14T10:51:47.270Z,24.26
2023-05-14T10:52:47.247Z,24.14
2023-05-14T10:53:47.237Z,24.16
2023-05-14T10:54:47.241Z,23.94
2023-05-14T10:55:47.227Z,23.43
2023-05-14T10:56:47.205Z,23.05
2023-05-14T10:57:47.216Z,22.89
2023-05-14T10:58:47.192Z,22.84
2023-05-14T10:59:47.195Z,23.34
2023-05-14T11:00:47.185Z,23.65
2023-05-14T11:01:47.168Z,23.85
2023-05-14T11:02:47.295Z,24.08
2023-05-14T11:03:47.258Z,24.05
2023-05-14T11:04:47.150Z,24.13
2023-05-14T11:05:47.109Z,24.04
2023-05-14T11:06:47.116Z,23.79
2023-05-14T11:07:47.102Z,23.57
2023-05-14T11:08:47.081Z,23.46
2023-05-14T11:09:47.095Z,23.49
2023-05-14T11:10:47.096Z,23.32
2023-05-14T11:11:47.046Z,23.50
2023-05-14T11:12:47.034Z,23.87
2023-05-14T11:13:47.042Z,23.80
2023-05-14T11:14:47.032Z,23.75
2023-05-14T11:15:47.010Z,23.83
2023-05-14T11:16:47.040Z,23.94
2023-05-14T11:17:47.047Z,24.02
2023-05-14T11:18:47.050Z,24.05
2023-05-14T11:19:47.929Z,23.64
2023-05-14T11:20:46.954Z,23.62
2023-05-14T11:21:47.041Z,23.82
2023-05-14T11:22:46.948Z,24.31
2023-05-14T11:23:46.946Z,24.52
2023-05-14T11:24:46.919Z,24.14
2023-05-14T11:25:46.920Z,23.75
2023-05-14T11:26:46.889Z,23.87
2023-05-14T11:27:46.920Z,24.01
2023-05-14T11:28:46.878Z,24.12
2023-05-14T11:29:46.854Z,24.38
2023-05-14T11:30:46.841Z,24.67
2023-05-14T11:31:46.874Z,24.95
2023-05-14T11:32:46.892Z,24.95
2023-05-14T11:33:46.811Z,25.05
2023-05-14T11:34:46.818Z,24.88
2023-05-14T11:35:46.790Z,24.50
2023-05-14T11:36:46.775Z,24.47
2023-05-14T11:37:46.779Z,24.50
2023-05-14T11:38:46.764Z,24.56
2023-05-14T11:39:46.749Z,24.68
2023-05-14T11:40:46.733Z,24.91
2023-05-14T11:41:46.736Z,25.34
2023-05-14T11:42:46.728Z,25.22
2023-05-14T11:43:46.710Z,24.75
2023-05-14T11:44:46.690Z,24.49
2023-05-14T11:45:46.708Z,24.14
2023-05-14T11:46:46.678Z,23.83
2023-05-14T11:47:46.806Z,23.90
2023-05-14T11:48:46.655Z,24.22
2023-05-14T11:49:46.640Z,24.60
2023-05-14T11:50:46.633Z,24.69
2023-05-14T11:51:46.645Z,24.83
2023-05-14T11:52:46.615Z,24.95
2023-05-14T11:53:46.609Z,24.76
2023-05-14T11:54:46.689Z,24.29
2023-05-14T11:55:46.588Z,24.07
2023-05-14T11:56:46.578Z,23.95
2023-05-14T11:57:46.598Z,23.89
2023-05-14T11:58:46.547Z,23.80
2023-05-14T11:59:46.536Z,23.72
2023-05-14T12:00:46.551Z,23.64
2023-05-14T12:01:46.853Z,23.75
2023-05-14T12:02:47.783Z,23.70
2023-05-14T12:03:47.794Z,23.72
2023-05-14T12:04:47.722Z,23.55
2023-05-14T12:05:47.618Z,23.58
2023-05-14T12:06:47.621Z,23.61
2023-05-14T12:07:47.599Z,23.61
2023-05-14T12:08:47.588Z,23.34
2023-05-14T12:09:47.641Z,23.05
2023-05-14T12:10:48.118Z,22.87
2023-05-14T12:11:47.570Z,22.69
2023-05-14T12:12:47.531Z,22.57
2023-05-14T12:13:47.540Z,22.46
2023-05-14T12:14:47.536Z,22.46
2023-05-14T12:15:47.525Z,22.43
2023-05-14T12:16:47.535Z,22.34
2023-05-14T12:17:47.502Z,22.39
2023-05-14T12:18:47.511Z,22.50
2023-05-14T12:19:47.505Z,22.75
2023-05-14T12:20:47.515Z,22.59
2023-05-14T12:21:47.453Z,22.56
2023-05-14T12:22:47.436Z,22.41
2023-05-14T12:23:47.432Z,22.31
2023-05-14T12:24:47.447Z,22.49
2023-05-14T12:25:47.420Z,22.34
2023-05-14T12:26:47.441Z,22.34
2023-05-14T12:27:47.406Z,22.28
2023-05-14T12:28:47.404Z,22.16
2023-05-14T12:29:47.377Z,22.16
2023-05-14T12:30:47.367Z,21.99
2023-05-14T12:31:47.416Z,21.91
2023-05-14T12:32:47.363Z,21.85
2023-05-14T12:33:47.369Z,21.83
2023-05-14T12:34:47.328Z,21.83
2023-05-14T12:35:47.318Z,21.78
2023-05-14T12:36:47.303Z,21.76
2023-05-14T12:37:47.326Z,21.78
2023-05-14T12:38:47.294Z,21.91
2023-05-14T12:39:47.277Z,21.92
2023-05-14T12:40:47.260Z,21.95
2023-05-14T12:41:47.255Z,22.02
2023-05-14T12:42:47.261Z,21.88
2023-05-14T12:43:47.269Z,21.78
2023-05-14T12:44:47.240Z,21.76
2023-05-14T12:45:47.215Z,21.92
2023-05-14T12:46:47.254Z,21.95
2023-05-14T12:47:47.229Z,22.02
2023-05-14T12:48:47.195Z,22.17
2023-05-14T12:49:47.154Z,22.16
2023-05-14T12:50:47.184Z,22.22
2023-05-14T12:51:47.165Z,22.13
2023-05-14T12:52:47.183Z,22.17
2023-05-14T12:53:47.159Z,21.90
2023-05-14T12:54:47.133Z,21.83
2023-05-14T12:55:47.126Z,21.90
2023-05-14T12:56:47.111Z,21.92
2023-05-14T12:57:47.110Z,21.88
2023-05-14T12:58:47.103Z,21.97
2023-05-14T12:59:47.090Z,21.94
2023-05-14T13:00:47.108Z,21.74
2023-05-14T13:01:47.066Z,21.32